createdAt,value
2019-03-01T00:00:37.019Z,10.50
2019-03-01T00:03:09.598Z,10.23
2019-03-01T00:06:40.219Z,10.47
2019-03-01T00:09:59.307Z,10.50
2019-03-01T00:13:38.101Z,9.60
2019-03-01T00:17:29.031Z,9.40
2019-03-01T00:21:10.156Z,8.33
2019-03-01T00:24:35.223Z,7.60
2019-03-01T00:27:55.987Z,8.63
2019-03-01T00:31:17.494Z,8.37
2019-03-01T00:34:25.626Z,8.23
2019-03-01T00:37:36.635Z,8.20
2019-03-01T00:41:07.829Z,7.73
2019-03-01T00:44:31.084Z,8.10
2019-03-01T00:47:01.745Z,7.90
2019-03-01T00:49:33.087Z,8.07
2019-03-01T00:52:03.551Z,8.00
2019-03-01T00:54:34.013Z,7.30
2019-03-01T00:57:04.690Z,8.13
2019-03-01T00:59:35.281Z,8.93
2019-03-01T01:02:06.110Z,7.93
2019-03-01T01:04:36.589Z,9.13
2019-03-01T01:07:07.472Z,7.40
2019-03-01T01:09:37.916Z,8.30
2019-03-01T01:12:08.433Z,8.90
2019-03-01T01:14:38.900Z,7.80
2019-03-01T01:17:09.328Z,8.27
2019-03-01T01:19:39.726Z,7.17
2019-03-01T01:22:10.191Z,7.20
2019-03-01T01:24:40.675Z,6.20
2019-03-01T01:27:11.118Z,7.90
2019-03-01T01:29:41.574Z,8.80
2019-03-01T01:32:12.015Z,7.07
2019-03-01T01:34:42.446Z,8.10
2019-03-01T01:37:12.909Z,8.43
2019-03-01T01:39:43.353Z,6.93
2019-03-01T01:42:13.802Z,7.50
2019-03-01T01:44:44.190Z,8.57
2019-03-01T01:47:14.615Z,7.57
2019-03-01T01:49:45.044Z,5.37
2019-03-01T01:52:15.453Z,4.80
2019-03-01T01:54:45.888Z,5.10
2019-03-01T01:57:16.290Z,4.50
2019-03-01T01:59:46.700Z,5.10
2019-03-01T02:02:17.182Z,4.60
2019-03-01T02:04:47.594Z,4.10
2019-03-01T02:07:18.031Z,4.10
2019-03-01T02:09:48.777Z,3.37
2019-03-01T02:12:19.305Z,3.67
2019-03-01T02:14:49.795Z,3.63
2019-03-01T02:17:20.205Z,3.13
2019-03-01T02:19:50.636Z,4.60
2019-03-01T02:22:21.089Z,3.30
2019-03-01T02:24:51.529Z,3.40
2019-03-01T02:27:31.826Z,4.30
2019-03-01T02:30:04.555Z,3.23
2019-03-01T02:32:53.471Z,3.13
2019-03-01T02:35:25.986Z,3.33
2019-03-01T02:37:56.424Z,3.80
2019-03-01T02:40:28.734Z,4.00
2019-03-01T02:42:59.180Z,3.90
2019-03-01T02:45:29.631Z,3.37
2019-03-01T02:48:00.064Z,3.00
2019-03-01T02:50:30.513Z,3.23
2019-03-01T02:53:00.967Z,3.30
2019-03-01T02:55:31.414Z,2.67
2019-03-01T02:58:01.857Z,2.97
2019-03-01T03:00:32.433Z,1.90
2019-03-01T03:03:02.881Z,3.20
2019-03-01T03:05:35.458Z,3.20
2019-03-01T03:08:07.709Z,2.90
2019-03-01T03:10:38.158Z,2.37
2019-03-01T03:13:10.692Z,2.70
2019-03-01T03:15:44.112Z,2.63
2019-03-01T03:18:14.561Z,3.07
2019-03-01T03:20:45.173Z,3.20
2019-03-01T03:23:15.630Z,2.57
2019-03-01T03:25:46.051Z,2.70
2019-03-01T03:28:18.342Z,3.30
2019-03-01T03:30:48.825Z,3.10
2019-03-01T03:33:19.238Z,3.23
2019-03-01T03:35:51.547Z,2.83
2019-03-01T03:38:22.218Z,3.03
2019-03-01T03:40:52.724Z,3.20
2019-03-01T03:43:23.142Z,3.10
2019-03-01T03:45:54.511Z,2.93
2019-03-01T03:48:24.956Z,3.70
2019-03-01T03:50:55.359Z,3.40
2019-03-01T03:53:25.767Z,3.73
2019-03-01T03:55:56.206Z,3.07
2019-03-01T03:58:26.639Z,3.53
2019-03-01T04:00:59.015Z,2.97
2019-03-01T04:03:29.561Z,3.23
2019-03-01T04:06:00.119Z,3.80
2019-03-01T04:08:30.523Z,3.23
2019-03-01T04:11:01.033Z,3.60
2019-03-01T04:13:31.479Z,3.80
2019-03-01T04:16:01.915Z,2.87
2019-03-01T04:18:32.321Z,3.33
2019-03-01T04:21:02.802Z,3.03
2019-03-01T04:23:33.219Z,3.40
2019-03-01T04:26:03.638Z,4.10
2019-03-01T04:28:34.080Z,3.20
2019-03-01T04:31:05.028Z,4.77
2019-03-01T04:33:35.453Z,3.10
2019-03-01T04:36:05.895Z,3.40
2019-03-01T04:38:36.292Z,3.87
2019-03-01T04:41:06.755Z,3.27
2019-03-01T04:43:37.150Z,3.60
2019-03-01T04:46:07.596Z,3.50
2019-03-01T04:48:38.037Z,3.00
2019-03-01T04:51:10.112Z,3.60
2019-03-01T04:53:40.566Z,3.07
2019-03-01T04:56:10.964Z,3.10
2019-03-01T04:58:41.376Z,5.20
2019-03-01T05:01:12.284Z,3.57
2019-03-01T05:03:42.757Z,3.20
2019-03-01T05:06:13.159Z,2.93
2019-03-01T05:08:43.573Z,2.90
2019-03-01T05:11:14.129Z,4.00
2019-03-01T05:13:44.562Z,3.83
2019-03-01T05:16:15.009Z,3.00
2019-03-01T05:18:45.458Z,3.37
2019-03-01T05:21:15.900Z,3.80
2019-03-01T05:23:46.316Z,4.20
2019-03-01T05:26:16.860Z,4.30
2019-03-01T05:28:47.304Z,4.30
2019-03-01T05:31:17.748Z,4.50
2019-03-01T05:33:48.190Z,4.83
2019-03-01T05:36:18.654Z,4.00
2019-03-01T05:38:49.067Z,4.83
2019-03-01T05:41:19.530Z,4.30
2019-03-01T05:43:49.978Z,4.80
2019-03-01T05:46:20.441Z,5.13
2019-03-01T05:48:50.854Z,5.10
2019-03-01T05:51:21.383Z,4.80
2019-03-01T05:53:51.834Z,4.80
2019-03-01T05:56:22.288Z,4.17
2019-03-01T05:59:22.925Z,5.10
2019-03-01T06:02:31.932Z,4.47
2019-03-01T06:05:09.336Z,5.30
2019-03-01T06:08:13.794Z,4.20
2019-03-01T06:11:31.861Z,4.90
2019-03-01T06:14:21.423Z,5.13
2019-03-01T06:17:44.653Z,5.90
2019-03-01T06:20:46.720Z,4.70
2019-03-01T06:24:07.522Z,4.30
2019-03-01T06:27:28.055Z,6.78
2019-03-01T06:31:13.928Z,5.33
2019-03-01T06:34:43.311Z,3.80
2019-03-01T06:38:43.531Z,4.77
2019-03-01T06:42:02.062Z,4.80
2019-03-01T06:45:27.273Z,5.07
2019-03-01T06:47:57.695Z,5.20
2019-03-01T06:50:32.846Z,5.30
2019-03-01T06:53:03.275Z,5.30
2019-03-01T06:55:49.570Z,4.73
2019-03-01T06:58:29.807Z,5.40
2019-03-01T07:01:04.769Z,5.87
2019-03-01T07:03:35.214Z,6.23
2019-03-01T07:06:05.635Z,5.23
2019-03-01T07:08:36.390Z,5.40
2019-03-01T07:11:06.830Z,5.17
2019-03-01T07:13:37.295Z,5.93
2019-03-01T07:16:07.744Z,5.97
2019-03-01T07:18:38.285Z,6.73
2019-03-01T07:21:08.764Z,6.00
2019-03-01T07:23:39.322Z,5.37
2019-03-01T07:26:09.841Z,5.13
2019-03-01T07:28:40.516Z,5.43
2019-03-01T07:31:10.959Z,5.00
2019-03-01T07:33:41.388Z,5.37
2019-03-01T07:36:11.860Z,4.30
2019-03-01T07:38:42.495Z,4.40
2019-03-01T07:41:13.051Z,5.50
2019-03-01T07:43:43.506Z,4.10
2019-03-01T07:46:13.949Z,4.47
2019-03-01T07:48:44.401Z,4.00
2019-03-01T07:51:14.866Z,3.53
2019-03-01T07:53:45.307Z,3.90
2019-03-01T07:56:15.823Z,3.90
2019-03-01T07:58:46.226Z,3.03
2019-03-01T08:01:16.691Z,2.87
2019-03-01T08:03:52.244Z,2.60
2019-03-01T08:06:19.360Z,2.33
2019-03-01T08:08:50.100Z,2.53
2019-03-01T08:11:20.644Z,2.43
2019-03-01T08:13:53.136Z,2.67
2019-03-01T08:16:25.105Z,1.80
2019-03-01T08:18:55.394Z,2.30
2019-03-01T08:21:25.834Z,2.87
2019-03-01T08:23:56.468Z,3.00
2019-03-01T08:26:26.944Z,2.90
2019-03-01T08:28:58.559Z,2.40
2019-03-01T08:31:29.516Z,2.53
2019-03-01T08:33:59.917Z,2.30
2019-03-01T08:36:30.360Z,2.70
2019-03-01T08:39:04.532Z,2.60
2019-03-01T08:41:32.935Z,2.40
2019-03-01T08:44:03.515Z,3.43
2019-03-01T08:46:34.137Z,3.40
2019-03-01T08:49:06.745Z,4.43
2019-03-01T08:51:36.883Z,3.53
2019-03-01T08:54:07.308Z,2.80
2019-03-01T08:56:37.763Z,2.87
2019-03-01T08:59:08.220Z,2.93
2019-03-01T09:01:41.778Z,3.00
2019-03-01T09:04:16.970Z,4.10
2019-03-01T09:06:45.493Z,3.20
2019-03-01T09:09:17.737Z,3.27
2019-03-01T09:11:48.106Z,2.50
2019-03-01T09:14:18.519Z,2.53
2019-03-01T09:16:49.081Z,1.80
2019-03-01T09:19:22.383Z,1.70
2019-03-01T09:21:51.697Z,1.13
2019-03-01T09:24:22.197Z,0.90
2019-03-01T09:26:55.182Z,1.00
2019-03-01T09:29:24.787Z,1.20
2019-03-01T09:31:57.845Z,1.57
2019-03-01T09:34:28.745Z,0.97
2019-03-01T09:36:59.901Z,0.80
2019-03-01T09:39:32.529Z,0.87
2019-03-01T09:42:04.421Z,0.93
2019-03-01T09:44:38.311Z,1.23
2019-03-01T09:47:06.984Z,1.53
2019-03-01T09:49:37.401Z,1.50
2019-03-01T09:52:07.829Z,1.40
2019-03-01T09:54:38.767Z,1.67
2019-03-01T09:57:12.414Z,2.40
2019-03-01T09:59:41.830Z,2.33
2019-03-01T10:02:12.247Z,2.60
2019-03-01T10:04:42.767Z,2.10
2019-03-01T10:07:13.196Z,2.50
2019-03-01T10:09:46.834Z,2.90
2019-03-01T10:12:17.266Z,3.93
2019-03-01T10:14:47.697Z,2.80
2019-03-01T10:17:18.142Z,3.00
2019-03-01T10:19:48.627Z,3.17
2019-03-01T10:22:19.081Z,3.67
2019-03-01T10:24:49.527Z,4.03
2019-03-01T10:27:20.477Z,5.20
2019-03-01T10:29:50.860Z,5.20
2019-03-01T10:32:21.303Z,4.53
2019-03-01T10:34:51.733Z,5.70
2019-03-01T10:37:22.159Z,5.00
2019-03-01T10:39:55.554Z,6.20
2019-03-01T10:42:26.665Z,4.63
2019-03-01T10:44:57.147Z,5.77
2019-03-01T10:47:27.601Z,6.10
2019-03-01T10:49:58.080Z,6.60
2019-03-01T10:52:28.549Z,7.10
2019-03-01T10:54:59.039Z,6.00
2019-03-01T10:57:29.549Z,6.80
2019-03-01T10:59:59.984Z,8.93
2019-03-01T11:02:30.426Z,9.43
2019-03-01T11:05:01.823Z,11.40
2019-03-01T11:07:32.233Z,9.53
2019-03-01T11:10:02.659Z,11.73
2019-03-01T11:12:33.212Z,11.40
2019-03-01T11:15:03.687Z,11.57
2019-03-01T11:17:34.219Z,11.40
2019-03-01T11:20:05.416Z,11.07
2019-03-01T11:22:35.917Z,12.40
2019-03-01T11:25:08.594Z,12.23
2019-03-01T11:27:39.045Z,12.30
2019-03-01T11:30:16.790Z,11.40
2019-03-01T11:32:47.226Z,11.50
2019-03-01T11:35:18.448Z,11.50
2019-03-01T11:37:54.537Z,11.83
2019-03-01T11:40:28.766Z,12.20
2019-03-01T11:42:59.347Z,13.00
2019-03-01T11:45:29.786Z,14.13
2019-03-01T11:48:00.266Z,14.93
2019-03-01T11:50:30.876Z,15.80
2019-03-01T11:53:02.457Z,16.23
2019-03-01T11:55:32.863Z,18.30
2019-03-01T11:58:03.454Z,18.00
2019-03-01T12:00:33.986Z,20.57
2019-03-01T12:03:04.925Z,19.80
2019-03-01T12:05:35.429Z,19.90
2019-03-01T12:08:05.871Z,20.10
2019-03-01T12:10:36.392Z,20.40
2019-03-01T12:13:06.871Z,20.20
2019-03-01T12:15:37.321Z,20.43
2019-03-01T12:18:07.792Z,21.73
2019-03-01T12:20:38.233Z,21.37
2019-03-01T12:23:08.689Z,22.10
2019-03-01T12:25:39.263Z,24.70
2019-03-01T12:28:09.747Z,22.93
2019-03-01T12:30:40.217Z,24.47
2019-03-01T12:33:10.661Z,24.00
2019-03-01T12:35:41.188Z,26.20
2019-03-01T12:38:11.640Z,25.90
2019-03-01T12:40:44.032Z,25.40
2019-03-01T12:43:14.934Z,27.40
2019-03-01T12:45:45.419Z,29.53
2019-03-01T12:48:15.870Z,29.90
2019-03-01T12:50:46.300Z,30.60
2019-03-01T12:53:16.712Z,30.53
2019-03-01T12:55:47.139Z,31.30
2019-03-01T12:58:19.705Z,31.47
2019-03-01T13:00:49.825Z,29.67
2019-03-01T13:03:20.314Z,31.00
2019-03-01T13:05:50.860Z,30.83
2019-03-01T13:08:21.318Z,29.67
2019-03-01T13:10:52.119Z,30.77
2019-03-01T13:13:22.613Z,28.90
2019-03-01T13:15:53.081Z,31.23
2019-03-01T13:18:23.539Z,29.80
2019-03-01T13:20:54.371Z,26.80
2019-03-01T13:23:24.781Z,30.97
2019-03-01T13:25:55.267Z,30.60
2019-03-01T13:28:25.664Z,32.30
2019-03-01T13:30:56.797Z,29.47
2019-03-01T13:33:27.702Z,29.77
2019-03-01T13:36:00.055Z,29.63
2019-03-01T13:38:33.926Z,30.27
2019-03-01T13:41:03.646Z,29.53
2019-03-01T13:43:34.462Z,28.83
2019-03-01T13:46:05.034Z,28.67
2019-03-01T13:48:35.830Z,26.27
2019-03-01T13:51:06.934Z,26.37
2019-03-01T13:53:37.366Z,27.00
2019-03-01T13:56:07.951Z,24.87
2019-03-01T13:58:38.554Z,28.03
2019-03-01T14:01:09.529Z,24.60
2019-03-01T14:03:40.416Z,24.83
2019-03-01T14:06:11.455Z,23.20
2019-03-01T14:08:42.033Z,24.90
2019-03-01T14:11:15.063Z,23.83
2019-03-01T14:13:47.803Z,24.73
2019-03-01T14:16:20.418Z,24.03
2019-03-01T14:18:49.425Z,23.70
2019-03-01T14:21:20.286Z,22.67
2019-03-01T14:23:51.446Z,21.43
2019-03-01T14:26:22.006Z,23.07
2019-03-01T14:28:52.566Z,21.33
2019-03-01T14:31:23.249Z,24.53
2019-03-01T14:33:53.830Z,24.87
2019-03-01T14:36:24.497Z,25.67
2019-03-01T14:38:54.941Z,24.23
2019-03-01T14:41:25.803Z,23.33
2019-03-01T14:43:59.046Z,21.83
2019-03-01T14:46:29.184Z,22.20
2019-03-01T14:49:01.087Z,23.27
2019-03-01T14:51:31.637Z,23.20
2019-03-01T14:54:02.213Z,23.20
2019-03-01T14:56:46.060Z,24.90
2019-03-01T14:59:25.670Z,23.80
2019-03-01T15:02:54.817Z,22.60
2019-03-01T15:05:25.306Z,21.50
2019-03-01T15:07:55.784Z,22.67
2019-03-01T15:10:28.798Z,22.90
2019-03-01T15:12:58.885Z,22.80
2019-03-01T15:15:32.311Z,23.97
2019-03-01T15:18:02.189Z,23.83
2019-03-01T15:20:32.622Z,22.00
2019-03-01T15:23:03.100Z,23.87
2019-03-01T15:25:33.616Z,23.20
2019-03-01T15:28:05.829Z,22.10
2019-03-01T15:30:36.295Z,23.27
2019-03-01T15:33:08.521Z,24.87
2019-03-01T15:35:39.786Z,20.93
2019-03-01T15:38:11.153Z,21.53
2019-03-01T15:40:41.935Z,21.37
2019-03-01T15:43:12.377Z,20.80
2019-03-01T15:45:43.915Z,19.57
2019-03-01T15:48:14.659Z,20.17
2019-03-01T15:50:45.113Z,18.03
2019-03-01T15:53:15.605Z,20.90
2019-03-01T15:55:46.091Z,20.10
2019-03-01T15:58:16.595Z,22.07
2019-03-01T16:00:47.316Z,19.90
2019-03-01T16:03:17.840Z,21.60
2019-03-01T16:05:48.402Z,20.50
2019-03-01T16:08:18.826Z,22.83
2019-03-01T16:10:49.541Z,23.10
2019-03-01T16:13:20.191Z,24.53
2019-03-01T16:15:50.703Z,23.33
2019-03-01T16:18:21.254Z,21.23
2019-03-01T16:20:51.759Z,21.50
2019-03-01T16:23:22.251Z,23.37
2019-03-01T16:25:55.969Z,22.37
2019-03-01T16:28:27.473Z,22.60
2019-03-01T16:30:57.620Z,23.40
2019-03-01T16:33:29.970Z,24.23
2019-03-01T16:36:01.097Z,25.00
2019-03-01T16:38:40.678Z,22.60
2019-03-01T16:41:07.402Z,22.80
2019-03-01T16:43:36.473Z,20.63
2019-03-01T16:46:07.055Z,21.97
2019-03-01T16:48:37.694Z,22.57
2019-03-01T16:51:10.090Z,20.70
2019-03-01T16:53:41.531Z,22.30
2019-03-01T16:56:12.427Z,21.40
2019-03-01T16:58:42.905Z,20.60
2019-03-01T17:01:13.500Z,18.80
2019-03-01T17:03:44.035Z,18.30
2019-03-01T17:06:14.697Z,18.80
2019-03-01T17:08:45.377Z,16.30
2019-03-01T17:11:16.058Z,17.33
2019-03-01T17:13:46.607Z,17.93
2019-03-01T17:16:20.509Z,16.77
2019-03-01T17:18:49.467Z,16.37
2019-03-01T17:21:19.954Z,18.43
2019-03-01T17:23:50.436Z,16.80
2019-03-01T17:26:21.159Z,20.03
2019-03-01T17:28:52.154Z,17.07
2019-03-01T17:31:23.092Z,14.97
2019-03-01T17:33:55.249Z,13.60
2019-03-01T17:36:25.905Z,13.60
2019-03-01T17:38:56.451Z,14.50
2019-03-01T17:41:26.992Z,14.93
2019-03-01T17:43:57.556Z,12.80
2019-03-01T17:46:29.841Z,13.47
2019-03-01T17:49:00.582Z,13.10
2019-03-01T17:51:31.099Z,11.17
2019-03-01T17:54:01.775Z,10.17
2019-03-01T17:56:33.098Z,9.83
2019-03-01T17:59:03.655Z,8.83
2019-03-01T18:01:35.613Z,9.83
2019-03-01T18:04:06.540Z,9.80
2019-03-01T18:06:37.137Z,10.23
2019-03-01T18:09:08.336Z,11.97
2019-03-01T18:11:40.704Z,9.83
2019-03-01T18:14:11.198Z,10.30
2019-03-01T18:16:41.732Z,11.70
2019-03-01T18:19:12.438Z,10.47
2019-03-01T18:21:46.420Z,9.27
2019-03-01T18:24:15.769Z,8.80
2019-03-01T18:26:46.363Z,8.07
2019-03-01T18:29:16.904Z,7.93
2019-03-01T18:31:47.793Z,9.30
2019-03-01T18:34:18.485Z,7.40
2019-03-01T18:36:48.996Z,7.43
2019-03-01T18:39:19.535Z,7.50
2019-03-01T18:41:50.035Z,5.70
2019-03-01T18:44:22.367Z,5.80
2019-03-01T18:46:55.392Z,5.17
2019-03-01T18:49:24.955Z,6.40
2019-03-01T18:51:55.431Z,7.10
2019-03-01T18:54:26.155Z,7.10
2019-03-01T18:56:56.667Z,6.57
2019-03-01T18:59:27.163Z,7.13
2019-03-01T19:01:57.686Z,5.50
2019-03-01T19:04:29.550Z,6.53
2019-03-01T19:07:00.445Z,6.37
2019-03-01T19:09:31.027Z,6.13
2019-03-01T19:12:01.532Z,5.80
2019-03-01T19:14:32.058Z,6.83
2019-03-01T19:17:05.014Z,7.60
2019-03-01T19:19:35.008Z,7.63
2019-03-01T19:22:05.672Z,7.47
2019-03-01T19:24:42.896Z,7.57
2019-03-01T19:27:09.261Z,7.10
2019-03-01T19:29:40.601Z,5.97
2019-03-01T19:32:11.121Z,6.40
2019-03-01T19:34:41.633Z,6.80
2019-03-01T19:37:13.315Z,6.77
2019-03-01T19:39:44.914Z,7.65
2019-03-01T19:42:15.386Z,7.57
2019-03-01T19:44:45.895Z,7.07
2019-03-01T19:47:16.374Z,10.17
2019-03-01T19:49:48.406Z,9.50
2019-03-01T19:52:19.122Z,12.33
2019-03-01T19:54:49.868Z,12.70
2019-03-01T19:57:20.373Z,13.47
2019-03-01T19:59:50.897Z,12.90
2019-03-01T20:02:21.384Z,13.60
2019-03-01T20:04:52.546Z,11.13
2019-03-01T20:07:24.229Z,11.47
2019-03-01T20:09:54.833Z,11.83
2019-03-01T20:12:25.451Z,14.30
2019-03-01T20:14:56.171Z,12.97
2019-03-01T20:17:30.372Z,12.30
2019-03-01T20:20:01.496Z,12.80
2019-03-01T20:22:32.174Z,11.83
2019-03-01T20:25:02.727Z,10.27
2019-03-01T20:27:35.575Z,11.13
2019-03-01T20:30:06.960Z,12.50
2019-03-01T20:32:37.490Z,11.97
2019-03-01T20:35:09.709Z,13.60
2019-03-01T20:37:41.590Z,12.87
2019-03-01T20:40:12.368Z,13.70
2019-03-01T20:42:42.853Z,13.30
2019-03-01T20:45:20.244Z,12.13
2019-03-01T20:47:53.522Z,12.93
2019-03-01T20:50:23.140Z,14.13
2019-03-01T20:52:53.636Z,13.43
2019-03-01T20:55:24.237Z,13.90
2019-03-01T20:57:54.787Z,13.90
2019-03-01T21:00:26.225Z,14.57
2019-03-01T21:02:57.681Z,15.20
2019-03-01T21:05:28.875Z,13.63
2019-03-01T21:08:01.859Z,14.00
2019-03-01T21:10:32.543Z,14.80
2019-03-01T21:13:03.028Z,14.90
2019-03-01T21:15:34.592Z,14.40
2019-03-01T21:18:05.857Z,14.50
2019-03-01T21:20:36.366Z,14.87
2019-03-01T21:23:07.062Z,15.43
2019-03-01T21:25:39.823Z,14.17
2019-03-01T21:28:09.791Z,15.43
2019-03-01T21:30:40.272Z,15.97
2019-03-01T21:33:11.167Z,15.37
2019-03-01T21:35:42.576Z,14.90
2019-03-01T21:38:14.747Z,17.90
2019-03-01T21:40:46.891Z,15.87
2019-03-01T21:43:17.527Z,18.23
2019-03-01T21:45:48.171Z,15.43
2019-03-01T21:48:18.730Z,18.50
2019-03-01T21:50:51.183Z,17.10
2019-03-01T21:53:22.050Z,16.37
2019-03-01T21:55:52.686Z,15.93
2019-03-01T21:58:23.237Z,14.63
2019-03-01T22:00:53.925Z,16.53
2019-03-01T22:03:24.827Z,15.27
2019-03-01T22:05:56.707Z,15.93
2019-03-01T22:08:27.203Z,17.47
2019-03-01T22:10:57.804Z,16.50
2019-03-01T22:13:28.744Z,16.60
2019-03-01T22:16:00.995Z,14.40
2019-03-01T22:18:31.624Z,14.93
2019-03-01T22:21:02.069Z,15.23
2019-03-01T22:23:32.717Z,17.20
2019-03-01T22:26:03.225Z,16.30
2019-03-01T22:28:36.140Z,16.67
2019-03-01T22:31:06.747Z,16.80
2019-03-01T22:33:37.201Z,15.33
2019-03-01T22:36:07.745Z,14.87
2019-03-01T22:38:41.418Z,15.43
2019-03-01T22:41:10.373Z,14.63
2019-03-01T22:43:40.868Z,15.90
2019-03-01T22:46:11.360Z,15.80
2019-03-01T22:48:47.079Z,14.93
2019-03-01T22:51:14.533Z,16.30
2019-03-01T22:53:46.377Z,15.73
2019-03-01T22:56:17.251Z,14.73
2019-03-01T22:58:47.844Z,14.83
2019-03-01T23:01:54.971Z,15.20
2019-03-01T23:04:26.620Z,15.83
2019-03-01T23:06:57.927Z,14.93
2019-03-01T23:09:29.552Z,15.60
2019-03-01T23:12:04.736Z,15.97
2019-03-01T23:14:34.734Z,15.10
2019-03-01T23:17:05.216Z,16.30
2019-03-01T23:19:35.710Z,14.90
2019-03-01T23:22:07.665Z,14.27
2019-03-01T23:24:38.615Z,12.47
2019-03-01T23:27:09.055Z,13.53
2019-03-01T23:29:39.522Z,13.07
2019-03-01T23:32:11.831Z,11.50
2019-03-01T23:34:43.780Z,14.40
2019-03-01T23:37:14.294Z,14.03
2019-03-01T23:39:44.737Z,12.83
2019-03-01T23:42:17.339Z,12.10
2019-03-01T23:44:49.138Z,11.73
2019-03-01T23:47:19.617Z,11.43
2019-03-01T23:49:50.261Z,12.10
2019-03-01T23:52:22.825Z,11.77
2019-03-01T23:54:52.846Z,12.80
2019-03-01T23:57:23.258Z,12.10
2019-03-01T23:59:53.728Z,12.57
